PRIVATE WETTERSTATION BILLIGHEIM-ALLFELD                       ZURCK
Wetterdaten: Sonntag, 20.08.2017
Datum Zeit Temp. A. Temp. A. min Temp. A. max Feuchte A. Luftdruck Regen Wind Richtung Richtung Sonnenschein ET Solar Taupunkt Windchill Windben Empfang
20.08.2017 00:00 14,7 C 14,7 C 14,8 C 75 % 1020,4 hPa 0,0 l/m 0,0 km/h (0 Bft) N 0 0 min 0,025 mm 0 W/m 10,3 C 14,7 C 0,0 km/h (0 Bft) 98 %
20.08.2017 00:10 14,7 C 14,7 C 14,7 C 77 % 1020,4 hPa 0,0 l/m 0,0 km/h (0 Bft) N 0 0 min 0,000 mm 0 W/m 10,7 C 14,7 C 0,0 km/h (0 Bft) 98 %
20.08.2017 00:20 14,6 C 14,6 C 14,7 C 78 % 1020,4 hPa 0,0 l/m 0,0 km/h (0 Bft) N 0 0 min 0,000 mm 0 W/m 10,8 C 14,6 C 0,0 km/h (0 Bft) 98 %
20.08.2017 00:30 14,5 C 14,5 C 14,6 C 79 % 1020,4 hPa 0,0 l/m 0,0 km/h (0 Bft) W 270 0 min 0,000 mm 0 W/m 10,9 C 14,5 C 3,2 km/h (1 Bft) 98 %
20.08.2017 00:40 14,4 C 14,4 C 14,5 C 80 % 1020,5 hPa 0,0 l/m 0,0 km/h (0 Bft) W 270 0 min 0,000 mm 0 W/m 11,0 C 14,4 C 8,0 km/h (2 Bft) 98 %
20.08.2017 00:50 14,3 C 14,3 C 14,4 C 79 % 1020,4 hPa 0,0 l/m 1,6 km/h (1 Bft) W 270 0 min 0,000 mm 0 W/m 10,7 C 14,3 C 8,0 km/h (2 Bft) 97 %
20.08.2017 01:00 14,3 C 14,3 C 14,3 C 80 % 1020,4 hPa 0,0 l/m 0,0 km/h (0 Bft) W 270 0 min 0,025 mm 0 W/m 10,9 C 14,3 C 1,6 km/h (1 Bft) 98 %
20.08.2017 01:10 14,2 C 14,2 C 14,3 C 80 % 1020,4 hPa 0,0 l/m 0,0 km/h (0 Bft) N 0 0 min 0,000 mm 0 W/m 10,8 C 14,2 C 0,0 km/h (0 Bft) 98 %
20.08.2017 01:20 14,2 C 14,2 C 14,2 C 81 % 1020,4 hPa 0,0 l/m 0,0 km/h (0 Bft) N 0 0 min 0,000 mm 0 W/m 11,0 C 14,2 C 0,0 km/h (0 Bft) 98 %
20.08.2017 01:30 14,1 C 14,1 C 14,2 C 81 % 1020,3 hPa 0,0 l/m 0,0 km/h (0 Bft) N 0 0 min 0,000 mm 0 W/m 10,9 C 14,1 C 0,0 km/h (0 Bft) 98 %
20.08.2017 01:40 14,0 C 14,0 C 14,1 C 81 % 1020,3 hPa 0,0 l/m 0,0 km/h (0 Bft) N 0 0 min 0,000 mm 0 W/m 10,8 C 14,0 C 0,0 km/h (0 Bft) 98 %
20.08.2017 01:50 13,9 C 13,9 C 14,1 C 82 % 1020,3 hPa 0,0 l/m 0,0 km/h (0 Bft) N 0 0 min 0,000 mm 0 W/m 10,9 C 13,9 C 0,0 km/h (0 Bft) 98 %
20.08.2017 02:00 13,7 C 13,7 C 14,0 C 82 % 1020,2 hPa 0,0 l/m 0,0 km/h (0 Bft) W 270 0 min 0,025 mm 0 W/m 10,7 C 13,7 C 3,2 km/h (1 Bft) 97 %
20.08.2017 02:10 13,6 C 13,6 C 13,8 C 82 % 1020,3 hPa 0,0 l/m 0,0 km/h (0 Bft) W 270 0 min 0,000 mm 0 W/m 10,6 C 13,6 C 3,2 km/h (1 Bft) 98 %
20.08.2017 02:20 13,4 C 13,4 C 13,6 C 83 % 1020,3 hPa 0,0 l/m 0,0 km/h (0 Bft) N 0 0 min 0,000 mm 0 W/m 10,6 C 13,4 C 0,0 km/h (0 Bft) 98 %
20.08.2017 02:30 13,1 C 13,1 C 13,4 C 84 % 1020,4 hPa 0,0 l/m 1,6 km/h (1 Bft) W 270 0 min 0,000 mm 0 W/m 10,5 C 13,1 C 3,2 km/h (1 Bft) 97 %
20.08.2017 02:40 12,9 C 12,9 C 13,1 C 85 % 1020,4 hPa 0,0 l/m 3,2 km/h (1 Bft) W 270 0 min 0,000 mm 0 W/m 10,4 C 12,9 C 4,8 km/h (1 Bft) 98 %
20.08.2017 02:50 12,8 C 12,8 C 12,9 C 85 % 1020,5 hPa 0,0 l/m 1,6 km/h (1 Bft) S-SW 202 0 min 0,000 mm 0 W/m 10,3 C 12,8 C 4,8 km/h (1 Bft) 98 %
20.08.2017 03:00 12,8 C 12,7 C 12,8 C 86 % 1020,5 hPa 0,0 l/m 1,6 km/h (1 Bft) S-SW 202 0 min 0,025 mm 0 W/m 10,5 C 12,8 C 4,8 km/h (1 Bft) 97 %
20.08.2017 03:10 12,8 C 12,8 C 12,8 C 86 % 1020,6 hPa 0,0 l/m 0,0 km/h (0 Bft) N 0 0 min 0,000 mm 0 W/m 10,5 C 12,8 C 0,0 km/h (0 Bft) 98 %
20.08.2017 03:20 12,7 C 12,7 C 12,8 C 86 % 1020,8 hPa 0,0 l/m 0,0 km/h (0 Bft) N 0 0 min 0,000 mm 0 W/m 10,4 C 12,7 C 0,0 km/h (0 Bft) 98 %
20.08.2017 03:30 12,6 C 12,6 C 12,7 C 86 % 1020,9 hPa 0,0 l/m 0,0 km/h (0 Bft) N 0 0 min 0,000 mm 0 W/m 10,3 C 12,6 C 0,0 km/h (0 Bft) 98 %
20.08.2017 03:40 12,5 C 12,5 C 12,6 C 87 % 1020,9 hPa 0,0 l/m 0,0 km/h (0 Bft) N 0 0 min 0,000 mm 0 W/m 10,4 C 12,5 C 0,0 km/h (0 Bft) 97 %
20.08.2017 03:50 12,5 C 12,5 C 12,5 C 87 % 1020,9 hPa 0,0 l/m 0,0 km/h (0 Bft) N 0 0 min 0,000 mm 0 W/m 10,4 C 12,5 C 0,0 km/h (0 Bft) 98 %
20.08.2017 04:00 12,5 C 12,4 C 12,5 C 88 % 1020,9 hPa 0,0 l/m 0,0 km/h (0 Bft) N 0 0 min 0,000 mm 0 W/m 10,6 C 12,5 C 0,0 km/h (0 Bft) 97 %
20.08.2017 04:10 12,5 C 12,5 C 12,5 C 88 % 1020,9 hPa 0,0 l/m 0,0 km/h (0 Bft) N 0 0 min 0,000 mm 0 W/m 10,6 C 12,5 C 0,0 km/h (0 Bft) 98 %
20.08.2017 04:20 12,5 C 12,4 C 12,5 C 88 % 1020,9 hPa 0,0 l/m 0,0 km/h (0 Bft) N 0 0 min 0,000 mm 0 W/m 10,6 C 12,5 C 0,0 km/h (0 Bft) 97 %
20.08.2017 04:30 12,4 C 12,4 C 12,4 C 88 % 1021,0 hPa 0,0 l/m 0,0 km/h (0 Bft) N 0 0 min 0,000 mm 0 W/m 10,5 C 12,4 C 0,0 km/h (0 Bft) 97 %
20.08.2017 04:40 12,4 C 12,4 C 12,4 C 88 % 1021,1 hPa 0,0 l/m 0,0 km/h (0 Bft) N 0 0 min 0,000 mm 0 W/m 10,5 C 12,4 C 0,0 km/h (0 Bft) 97 %
20.08.2017 04:50 12,3 C 12,3 C 12,4 C 88 % 1021,1 hPa 0,0 l/m 0,0 km/h (0 Bft) S-SW 202 0 min 0,000 mm 0 W/m 10,4 C 12,3 C 1,6 km/h (1 Bft) 97 %
20.08.2017 05:00 12,2 C 12,2 C 12,3 C 88 % 1021,1 hPa 0,0 l/m 0,0 km/h (0 Bft) N 0 0 min 0,000 mm 0 W/m 10,3 C 12,2 C 0,0 km/h (0 Bft) 98 %
20.08.2017 05:10 12,1 C 12,1 C 12,2 C 88 % 1021,0 hPa 0,0 l/m 1,6 km/h (1 Bft) W 270 0 min 0,000 mm 0 W/m 10,2 C 12,1 C 6,4 km/h (2 Bft) 97 %
20.08.2017 05:20 12,0 C 12,0 C 12,1 C 88 % 1021,1 hPa 0,0 l/m 3,2 km/h (1 Bft) W-NW 292 0 min 0,000 mm 0 W/m 10,1 C 12,0 C 9,7 km/h (2 Bft) 98 %
20.08.2017 05:30 11,9 C 11,9 C 12,0 C 88 % 1021,1 hPa 0,0 l/m 0,0 km/h (0 Bft) N 0 0 min 0,000 mm 0 W/m 10,0 C 11,9 C 0,0 km/h (0 Bft) 98 %
20.08.2017 05:40 11,8 C 11,8 C 11,9 C 89 % 1021,2 hPa 0,0 l/m 0,0 km/h (0 Bft) N 0 0 min 0,000 mm 0 W/m 10,0 C 11,8 C 0,0 km/h (0 Bft) 98 %
20.08.2017 05:50 11,7 C 11,7 C 11,8 C 89 % 1021,2 hPa 0,0 l/m 0,0 km/h (0 Bft) N 0 0 min 0,000 mm 0 W/m 9,9 C 11,7 C 0,0 km/h (0 Bft) 97 %
20.08.2017 06:00 11,6 C 11,6 C 11,7 C 89 % 1021,3 hPa 0,0 l/m 0,0 km/h (0 Bft) N 0 0 min 0,000 mm 0 W/m 9,8 C 11,6 C 0,0 km/h (0 Bft) 97 %
20.08.2017 06:10 11,4 C 11,4 C 11,6 C 89 % 1021,3 hPa 0,0 l/m 0,0 km/h (0 Bft) N 0 0 min 0,000 mm 0 W/m 9,7 C 11,4 C 0,0 km/h (0 Bft) 98 %
20.08.2017 06:20 11,3 C 11,3 C 11,4 C 89 % 1021,5 hPa 0,0 l/m 0,0 km/h (0 Bft) N 0 0 min 0,000 mm 0 W/m 9,6 C 11,3 C 0,0 km/h (0 Bft) 97 %
20.08.2017 06:30 11,3 C 11,3 C 11,3 C 89 % 1021,6 hPa 0,0 l/m 0,0 km/h (0 Bft) N 0 0 min 0,000 mm 7 W/m 9,6 C 11,3 C 0,0 km/h (0 Bft) 98 %
20.08.2017 06:40 11,3 C 11,2 C 11,3 C 89 % 1021,7 hPa 0,0 l/m 0,0 km/h (0 Bft) N 0 0 min 0,000 mm 11 W/m 9,6 C 11,3 C 0,0 km/h (0 Bft) 97 %
20.08.2017 06:50 11,1 C 11,1 C 11,3 C 89 % 1021,9 hPa 0,0 l/m 0,0 km/h (0 Bft) N 0 0 min 0,000 mm 14 W/m 9,4 C 11,1 C 0,0 km/h (0 Bft) 97 %
20.08.2017 07:00 11,1 C 11,1 C 11,1 C 89 % 1021,9 hPa 0,0 l/m 0,0 km/h (0 Bft) N 0 0 min 0,000 mm 18 W/m 9,4 C 11,1 C 0,0 km/h (0 Bft) 98 %
20.08.2017 07:10 11,1 C 11,1 C 11,1 C 89 % 1021,9 hPa 0,0 l/m 0,0 km/h (0 Bft) N 0 0 min 0,000 mm 21 W/m 9,4 C 11,1 C 0,0 km/h (0 Bft) 97 %
20.08.2017 07:20 11,1 C 11,0 C 11,1 C 89 % 1022,1 hPa 0,0 l/m 0,0 km/h (0 Bft) W-NW 292 0 min 0,000 mm 25 W/m 9,4 C 11,1 C 1,6 km/h (1 Bft) 88 %
20.08.2017 07:30 11,2 C 11,1 C 11,2 C 89 % 1022,1 hPa 0,0 l/m 0,0 km/h (0 Bft) W-NW 292 0 min 0,000 mm 32 W/m 9,5 C 11,2 C 6,4 km/h (2 Bft) 97 %
20.08.2017 07:40 11,3 C 11,2 C 11,3 C 89 % 1022,1 hPa 0,0 l/m 0,0 km/h (0 Bft) W-NW 292 0 min 0,000 mm 42 W/m 9,6 C 11,3 C 4,8 km/h (1 Bft) 98 %
20.08.2017 07:50 11,4 C 11,3 C 11,4 C 89 % 1022,1 hPa 0,0 l/m 1,6 km/h (1 Bft) W-NW 292 0 min 0,000 mm 49 W/m 9,7 C 11,4 C 4,8 km/h (1 Bft) 98 %
20.08.2017 08:00 11,7 C 11,4 C 11,7 C 89 % 1022,1 hPa 0,0 l/m 3,2 km/h (1 Bft) W-NW 292 0 min 0,025 mm 54 W/m 9,9 C 11,7 C 9,7 km/h (2 Bft) 97 %
20.08.2017 08:10 12,1 C 11,7 C 12,1 C 89 % 1022,1 hPa 0,0 l/m 3,2 km/h (1 Bft) W-NW 292 0 min 0,000 mm 58 W/m 10,3 C 12,1 C 14,5 km/h (3 Bft) 98 %
20.08.2017 08:20 12,4 C 12,1 C 12,4 C 89 % 1022,2 hPa 0,0 l/m 6,4 km/h (2 Bft) W-NW 292 0 min 0,000 mm 67 W/m 10,6 C 12,4 C 16,1 km/h (3 Bft) 97 %
20.08.2017 08:30 12,7 C 12,4 C 12,7 C 89 % 1022,2 hPa 0,0 l/m 6,4 km/h (2 Bft) W 270 0 min 0,000 mm 114 W/m 10,9 C 12,7 C 16,1 km/h (3 Bft) 98 %
20.08.2017 08:40 13,2 C 12,7 C 13,2 C 89 % 1022,2 hPa 0,0 l/m 3,2 km/h (1 Bft) W 270 10 min 0,000 mm 283 W/m 11,4 C 13,2 C 11,3 km/h (2 Bft) 97 %
20.08.2017 08:50 13,9 C 13,2 C 13,9 C 88 % 1022,2 hPa 0,0 l/m 3,2 km/h (1 Bft) W-SW 247 10 min 0,000 mm 320 W/m 11,9 C 13,9 C 9,7 km/h (2 Bft) 98 %
20.08.2017 09:00 14,9 C 13,9 C 14,9 C 86 % 1022,3 hPa 0,0 l/m 1,6 km/h (1 Bft) SW 225 10 min 0,102 mm 330 W/m 12,6 C 14,9 C 12,9 km/h (3 Bft) 97 %
20.08.2017 09:10 15,5 C 15,0 C 15,5 C 80 % 1022,5 hPa 0,0 l/m 6,4 km/h (2 Bft) W 270 10 min 0,000 mm 360 W/m 12,1 C 15,5 C 16,1 km/h (3 Bft) 97 %
20.08.2017 09:20 15,9 C 15,5 C 15,9 C 79 % 1022,5 hPa 0,0 l/m 0,0 km/h (0 Bft) NW 315 10 min 0,000 mm 381 W/m 12,3 C 15,9 C 9,7 km/h (2 Bft) 98 %
20.08.2017 09:30 16,5 C 15,9 C 16,5 C 78 % 1022,5 hPa 0,0 l/m 6,4 km/h (2 Bft) S-SW 202 10 min 0,000 mm 401 W/m 12,6 C 16,5 C 14,5 km/h (3 Bft) 97 %
20.08.2017 09:40 16,8 C 16,5 C 16,8 C 78 % 1022,5 hPa 0,0 l/m 6,4 km/h (2 Bft) W-NW 292 10 min 0,000 mm 462 W/m 12,9 C 16,8 C 17,7 km/h (3 Bft) 98 %
20.08.2017 09:50 17,1 C 16,8 C 17,1 C 72 % 1022,5 hPa 0,0 l/m 9,7 km/h (2 Bft) W 270 10 min 0,000 mm 506 W/m 12,0 C 15,6 C 24,1 km/h (4 Bft) 97 %
20.08.2017 10:00 17,5 C 17,1 C 17,5 C 71 % 1022,6 hPa 0,0 l/m 8,0 km/h (2 Bft) W 270 10 min 0,254 mm 534 W/m 12,2 C 16,7 C 19,3 km/h (3 Bft) 98 %
20.08.2017 10:10 17,5 C 17,4 C 17,6 C 67 % 1022,7 hPa 0,0 l/m 9,7 km/h (2 Bft) W 270 10 min 0,000 mm 555 W/m 11,3 C 16,0 C 25,7 km/h (4 Bft) 98 %
20.08.2017 10:20 17,8 C 17,6 C 17,8 C 67 % 1022,8 hPa 0,0 l/m 9,7 km/h (2 Bft) W-SW 247 10 min 0,000 mm 592 W/m 11,6 C 16,3 C 24,1 km/h (4 Bft) 97 %
20.08.2017 10:30 18,1 C 17,8 C 18,1 C 60 % 1022,8 hPa 0,0 l/m 12,9 km/h (3 Bft) W-NW 292 10 min 0,000 mm 612 W/m 10,2 C 15,6 C 27,4 km/h (4 Bft) 98 %
20.08.2017 10:40 18,2 C 18,0 C 18,2 C 63 % 1022,8 hPa 0,0 l/m 11,3 km/h (2 Bft) W-NW 292 10 min 0,000 mm 635 W/m 11,0 C 16,2 C 27,4 km/h (4 Bft) 97 %
20.08.2017 10:50 18,6 C 18,2 C 18,6 C 66 % 1022,9 hPa 0,0 l/m 11,3 km/h (2 Bft) W-NW 292 10 min 0,000 mm 650 W/m 12,1 C 16,6 C 25,7 km/h (4 Bft) 98 %
20.08.2017 11:00 18,6 C 18,6 C 18,7 C 63 % 1022,9 hPa 0,0 l/m 12,9 km/h (3 Bft) W-NW 292 10 min 0,381 mm 703 W/m 11,4 C 16,1 C 27,4 km/h (4 Bft) 97 %
20.08.2017 11:10 18,3 C 18,3 C 18,6 C 64 % 1022,9 hPa 0,0 l/m 14,5 km/h (3 Bft) W-NW 292 10 min 0,000 mm 707 W/m 11,4 C 15,3 C 29,0 km/h (5 Bft) 97 %
20.08.2017 11:20 18,6 C 18,3 C 18,6 C 64 % 1022,9 hPa 0,0 l/m 6,4 km/h (2 Bft) W-NW 292 10 min 0,000 mm 777 W/m 11,7 C 18,6 C 17,7 km/h (3 Bft) 97 %
20.08.2017 11:30 18,6 C 18,5 C 18,6 C 64 % 1022,8 hPa 0,0 l/m 12,9 km/h (3 Bft) W-NW 292 10 min 0,000 mm 756 W/m 11,7 C 16,1 C 24,1 km/h (4 Bft) 97 %
20.08.2017 11:40 18,8 C 18,6 C 18,8 C 59 % 1022,9 hPa 0,0 l/m 11,3 km/h (2 Bft) W 270 10 min 0,000 mm 805 W/m 10,6 C 16,9 C 27,4 km/h (4 Bft) 98 %
20.08.2017 11:50 18,7 C 18,5 C 18,8 C 63 % 1022,9 hPa 0,0 l/m 9,7 km/h (2 Bft) W 270 10 min 0,000 mm 775 W/m 11,5 C 17,3 C 22,5 km/h (4 Bft) 97 %
20.08.2017 12:00 19,4 C 18,7 C 19,4 C 61 % 1022,8 hPa 0,0 l/m 9,7 km/h (2 Bft) W 270 10 min 0,406 mm 809 W/m 11,7 C 18,1 C 25,7 km/h (4 Bft) 98 %
20.08.2017 12:10 19,7 C 19,4 C 19,7 C 57 % 1023,0 hPa 0,0 l/m 14,5 km/h (3 Bft) W-SW 247 10 min 0,000 mm 844 W/m 10,9 C 17,0 C 30,6 km/h (5 Bft) 96 %
20.08.2017 12:20 19,6 C 19,6 C 19,7 C 59 % 1022,7 hPa 0,0 l/m 11,3 km/h (2 Bft) W 270 10 min 0,000 mm 821 W/m 11,4 C 17,8 C 29,0 km/h (5 Bft) 98 %
20.08.2017 12:40 19,4 C 19,4 C 19,7 C 59 % 1022,7 hPa 0,0 l/m 15,1 km/h (3 Bft) W-SW 257 20 min 0,000 mm 311 W/m 11,2 C 16,5 C 29,0 km/h (5 Bft) 99 %
20.08.2017 12:50 18,8 C 18,8 C 19,4 C 62 % 1022,7 hPa 0,0 l/m 11,0 km/h (2 Bft) W-SW 248 10 min 0,000 mm 846 W/m 11,4 C 17,0 C 25,7 km/h (4 Bft) 100 %
20.08.2017 13:00 19,3 C 18,8 C 19,3 C 58 % 1022,6 hPa 0,0 l/m 11,4 km/h (2 Bft) W 270 10 min 0,459 mm 357 W/m 10,8 C 17,4 C 22,5 km/h (4 Bft) 100 %
20.08.2017 13:10 19,4 C 19,3 C 19,4 C 57 % 1022,6 hPa 0,0 l/m 11,6 km/h (2 Bft) W-NW 283 10 min 0,000 mm 330 W/m 10,7 C 17,5 C 22,5 km/h (4 Bft) 100 %
20.08.2017 13:20 19,5 C 19,3 C 19,5 C 58 % 1022,5 hPa 0,0 l/m 10,6 km/h (2 Bft) W 278 10 min 0,000 mm 251 W/m 11,0 C 17,9 C 19,3 km/h (3 Bft) 100 %
20.08.2017 13:30 19,8 C 19,5 C 19,8 C 57 % 1022,5 hPa 0,0 l/m 11,4 km/h (2 Bft) W-NW 299 10 min 0,000 mm 911 W/m 11,0 C 18,0 C 24,1 km/h (4 Bft) 100 %
20.08.2017 13:40 19,9 C 19,8 C 20,1 C 57 % 1022,4 hPa 0,0 l/m 9,8 km/h (2 Bft) W-NW 296 10 min 0,000 mm 213 W/m 11,1 C 18,6 C 33,8 km/h (5 Bft) 100 %
20.08.2017 13:50 19,2 C 19,2 C 19,9 C 61 % 1022,6 hPa 0,0 l/m 11,7 km/h (2 Bft) SW 217 10 min 0,000 mm 918 W/m 11,5 C 17,2 C 30,6 km/h (5 Bft) 100 %
20.08.2017 14:00 19,7 C 19,2 C 19,7 C 57 % 1022,6 hPa 0,0 l/m 12,9 km/h (3 Bft) NW 319 10 min 0,432 mm 935 W/m 10,9 C 17,4 C 30,6 km/h (5 Bft) 100 %
20.08.2017 14:10 19,8 C 19,7 C 19,8 C 61 % 1022,5 hPa 0,0 l/m 9,9 km/h (2 Bft) NW 308 10 min 0,000 mm 791 W/m 12,1 C 18,5 C 22,5 km/h (4 Bft) 100 %
20.08.2017 14:20 20,3 C 19,8 C 20,3 C 55 % 1022,5 hPa 0,0 l/m 11,2 km/h (2 Bft) N-NW 327 10 min 0,000 mm 786 W/m 11,0 C 18,6 C 25,7 km/h (4 Bft) 100 %
20.08.2017 14:30 20,7 C 20,3 C 20,7 C 56 % 1022,5 hPa 0,0 l/m 12,4 km/h (3 Bft) W-NW 299 10 min 0,000 mm 847 W/m 11,6 C 18,7 C 25,7 km/h (4 Bft) 100 %
20.08.2017 14:40 20,7 C 20,7 C 20,7 C 54 % 1022,6 hPa 0,0 l/m 11,5 km/h (2 Bft) NW 309 10 min 0,000 mm 821 W/m 11,1 C 19,0 C 25,7 km/h (4 Bft) 100 %
20.08.2017 14:50 20,4 C 20,4 C 20,7 C 53 % 1022,5 hPa 0,0 l/m 7,7 km/h (2 Bft) W-SW 257 10 min 0,000 mm 789 W/m 10,5 C 19,9 C 17,7 km/h (3 Bft) 100 %
20.08.2017 15:00 20,8 C 20,4 C 20,8 C 54 % 1022,4 hPa 0,0 l/m 9,6 km/h (2 Bft) NW 315 10 min 0,457 mm 795 W/m 11,1 C 19,6 C 22,5 km/h (4 Bft) 100 %
20.08.2017 15:10 20,8 C 20,8 C 20,8 C 53 % 1022,3 hPa 0,0 l/m 11,8 km/h (2 Bft) N-NW 334 10 min 0,000 mm 285 W/m 10,9 C 19,0 C 24,1 km/h (4 Bft) 100 %
20.08.2017 15:20 20,3 C 20,3 C 20,8 C 54 % 1022,4 hPa 0,0 l/m 13,8 km/h (3 Bft) W-NW 295 10 min 0,000 mm 765 W/m 10,7 C 17,9 C 25,7 km/h (4 Bft) 100 %
20.08.2017 15:30 20,3 C 20,3 C 20,4 C 52 % 1022,5 hPa 0,0 l/m 11,4 km/h (2 Bft) NW 314 10 min 0,000 mm 213 W/m 10,1 C 18,5 C 24,1 km/h (4 Bft) 100 %
20.08.2017 15:40 20,4 C 20,3 C 20,4 C 54 % 1022,6 hPa 0,0 l/m 12,7 km/h (3 Bft) NW 325 10 min 0,000 mm 721 W/m 10,8 C 18,3 C 25,7 km/h (4 Bft) 100 %
20.08.2017 15:50 20,6 C 20,4 C 20,6 C 53 % 1022,5 hPa 0,0 l/m 10,9 km/h (2 Bft) W-NW 299 10 min 0,000 mm 652 W/m 10,7 C 19,0 C 22,5 km/h (4 Bft) 100 %
20.08.2017 16:00 20,8 C 20,6 C 20,8 C 53 % 1022,5 hPa 0,0 l/m 10,7 km/h (2 Bft) N-NW 344 10 min 0,407 mm 585 W/m 10,9 C 19,3 C 24,1 km/h (4 Bft) 100 %
20.08.2017 16:10 20,7 C 20,7 C 20,8 C 50 % 1022,5 hPa 0,0 l/m 13,3 km/h (3 Bft) W 274 10 min 0,000 mm 584 W/m 9,9 C 18,5 C 29,0 km/h (5 Bft) 100 %
20.08.2017 16:20 20,6 C 20,6 C 20,7 C 50 % 1022,5 hPa 0,0 l/m 10,2 km/h (2 Bft) W 267 10 min 0,000 mm 617 W/m 9,8 C 19,2 C 25,7 km/h (4 Bft) 100 %
20.08.2017 16:30 20,7 C 20,6 C 20,7 C 50 % 1022,5 hPa 0,0 l/m 13,3 km/h (3 Bft) W-NW 299 10 min 0,000 mm 564 W/m 9,9 C 18,5 C 25,7 km/h (4 Bft) 100 %
20.08.2017 16:40 20,5 C 20,5 C 20,7 C 49 % 1022,5 hPa 0,0 l/m 14,0 km/h (3 Bft) W-NW 301 0 min 0,000 mm 139 W/m 9,4 C 18,1 C 25,7 km/h (4 Bft) 100 %
20.08.2017 16:50 20,2 C 20,2 C 20,5 C 50 % 1022,4 hPa 0,0 l/m 10,5 km/h (2 Bft) W-NW 294 10 min 0,000 mm 163 W/m 9,4 C 18,7 C 22,5 km/h (4 Bft) 100 %
20.08.2017 17:00 20,2 C 20,2 C 20,2 C 50 % 1022,5 hPa 0,0 l/m 13,1 km/h (3 Bft) W-NW 291 0 min 0,330 mm 144 W/m 9,4 C 18,0 C 29,0 km/h (5 Bft) 100 %
20.08.2017 17:10 20,3 C 20,2 C 20,3 C 50 % 1022,5 hPa 0,0 l/m 12,9 km/h (3 Bft) NW 311 0 min 0,000 mm 151 W/m 9,5 C 18,1 C 20,9 km/h (4 Bft) 100 %
20.08.2017 17:20 20,2 C 20,2 C 20,3 C 50 % 1022,5 hPa 0,0 l/m 13,4 km/h (3 Bft) W-NW 302 0 min 0,000 mm 141 W/m 9,4 C 17,9 C 25,7 km/h (4 Bft) 100 %
20.08.2017 17:30 20,0 C 19,9 C 20,2 C 47 % 1022,6 hPa 0,0 l/m 11,8 km/h (2 Bft) W-NW 292 0 min 0,000 mm 134 W/m 8,3 C 18,1 C 29,0 km/h (5 Bft) 100 %
20.08.2017 17:40 19,7 C 19,7 C 20,0 C 48 % 1022,6 hPa 0,0 l/m 10,7 km/h (2 Bft) W-NW 294 0 min 0,000 mm 121 W/m 8,4 C 18,1 C 20,9 km/h (4 Bft) 100 %
20.08.2017 17:50 19,6 C 19,6 C 19,7 C 47 % 1022,6 hPa 0,0 l/m 10,4 km/h (2 Bft) W-NW 299 0 min 0,000 mm 105 W/m 8,0 C 18,1 C 22,5 km/h (4 Bft) 100 %
20.08.2017 18:00 19,5 C 19,5 C 19,6 C 48 % 1022,6 hPa 0,0 l/m 11,2 km/h (2 Bft) W 275 0 min 0,152 mm 102 W/m 8,2 C 17,7 C 30,6 km/h (5 Bft) 100 %
20.08.2017 18:10 19,4 C 19,4 C 19,5 C 49 % 1022,6 hPa 0,0 l/m 7,8 km/h (2 Bft) W 270 0 min 0,000 mm 118 W/m 8,4 C 18,8 C 19,3 km/h (3 Bft) 100 %
20.08.2017 18:20 19,3 C 19,3 C 19,4 C 48 % 1022,5 hPa 0,0 l/m 7,7 km/h (2 Bft) W 262 0 min 0,000 mm 93 W/m 8,0 C 18,7 C 19,3 km/h (3 Bft) 92 %
20.08.2017 18:30 19,2 C 19,2 C 19,3 C 52 % 1022,5 hPa 0,0 l/m 6,1 km/h (2 Bft) NW 323 0 min 0,000 mm 83 W/m 9,1 C 19,2 C 16,1 km/h (3 Bft) 99 %
20.08.2017 18:40 19,0 C 19,0 C 19,2 C 54 % 1022,4 hPa 0,0 l/m 9,8 km/h (2 Bft) NW 317 0 min 0,000 mm 69 W/m 9,5 C 17,6 C 22,5 km/h (4 Bft) 100 %
20.08.2017 18:50 18,8 C 18,8 C 19,0 C 55 % 1022,5 hPa 0,0 l/m 8,4 km/h (2 Bft) NW 305 0 min 0,000 mm 70 W/m 9,6 C 17,9 C 17,7 km/h (3 Bft) 100 %
20.08.2017 19:00 18,6 C 18,6 C 18,8 C 56 % 1022,5 hPa 0,0 l/m 6,1 km/h (2 Bft) NW 319 0 min 0,102 mm 62 W/m 9,6 C 18,6 C 17,7 km/h (3 Bft) 100 %
20.08.2017 19:10 18,3 C 18,3 C 18,6 C 57 % 1022,6 hPa 0,0 l/m 6,5 km/h (2 Bft) NW 304 0 min 0,000 mm 53 W/m 9,6 C 18,3 C 14,5 km/h (3 Bft) 100 %
20.08.2017 19:20 18,2 C 18,2 C 18,3 C 58 % 1022,5 hPa 0,0 l/m 5,5 km/h (1 Bft) NW 320 0 min 0,000 mm 46 W/m 9,8 C 18,2 C 9,7 km/h (2 Bft) 100 %
20.08.2017 19:30 17,9 C 17,9 C 18,2 C 58 % 1022,6 hPa 0,0 l/m 6,1 km/h (2 Bft) W-NW 300 0 min 0,000 mm 42 W/m 9,5 C 17,9 C 12,9 km/h (3 Bft) 100 %
20.08.2017 19:40 17,7 C 17,7 C 17,9 C 58 % 1022,7 hPa 0,0 l/m 4,3 km/h (1 Bft) W-NW 301 0 min 0,000 mm 35 W/m 9,3 C 17,7 C 11,3 km/h (2 Bft) 100 %
20.08.2017 19:50 17,5 C 17,5 C 17,7 C 59 % 1022,6 hPa 0,0 l/m 4,9 km/h (1 Bft) W-NW 298 0 min 0,000 mm 32 W/m 9,4 C 17,5 C 16,1 km/h (3 Bft) 100 %
20.08.2017 20:00 17,2 C 17,2 C 17,5 C 59 % 1022,7 hPa 0,0 l/m 4,4 km/h (1 Bft) NW 306 0 min 0,051 mm 26 W/m 9,1 C 17,2 C 9,7 km/h (2 Bft) 99 %
20.08.2017 20:10 17,0 C 17,0 C 17,2 C 60 % 1022,7 hPa 0,0 l/m 2,9 km/h (1 Bft) W-NW 300 0 min 0,000 mm 18 W/m 9,2 C 17,0 C 8,0 km/h (2 Bft) 99 %
20.08.2017 20:20 16,7 C 16,7 C 17,0 C 60 % 1022,7 hPa 0,0 l/m 1,1 km/h (1 Bft) W-NW 300 0 min 0,000 mm 9 W/m 8,9 C 16,7 C 4,8 km/h (1 Bft) 100 %
20.08.2017 20:30 16,4 C 16,4 C 16,7 C 61 % 1022,7 hPa 0,0 l/m 0,1 km/h (0 Bft) W-NW 300 0 min 0,000 mm 0 W/m 8,9 C 16,4 C 3,2 km/h (1 Bft) 99 %
20.08.2017 20:40 16,1 C 16,1 C 16,4 C 62 % 1022,8 hPa 0,0 l/m 0,1 km/h (0 Bft) W-NW 300 0 min 0,000 mm 0 W/m 8,8 C 16,1 C 4,8 km/h (1 Bft) 99 %
20.08.2017 20:50 15,7 C 15,7 C 16,1 C 64 % 1023,0 hPa 0,0 l/m 0,2 km/h (0 Bft) W-NW 300 0 min 0,000 mm 0 W/m 8,9 C 15,7 C 3,2 km/h (1 Bft) 100 %
20.08.2017 21:00 15,2 C 15,2 C 15,7 C 67 % 1022,9 hPa 0,0 l/m 0,2 km/h (0 Bft) W-NW 302 0 min 0,025 mm 0 W/m 9,1 C 15,2 C 3,2 km/h (1 Bft) 99 %
20.08.2017 21:10 14,8 C 14,8 C 15,2 C 68 % 1023,0 hPa 0,0 l/m 0,0 km/h (0 Bft) N 0 0 min 0,000 mm 0 W/m 9,0 C 14,8 C 0,0 km/h (0 Bft) 98 %
20.08.2017 21:20 14,5 C 14,5 C 14,8 C 69 % 1023,1 hPa 0,0 l/m 0,0 km/h (0 Bft) N 0 0 min 0,000 mm 0 W/m 8,9 C 14,5 C 0,0 km/h (0 Bft) 97 %
20.08.2017 21:30 14,2 C 14,2 C 14,5 C 70 % 1023,1 hPa 0,0 l/m 0,0 km/h (0 Bft) N 0 0 min 0,000 mm 0 W/m 8,8 C 14,2 C 0,0 km/h (0 Bft) 98 %
20.08.2017 21:40 13,9 C 13,9 C 14,2 C 71 % 1023,2 hPa 0,0 l/m 0,0 km/h (0 Bft) N 0 0 min 0,000 mm 0 W/m 8,7 C 13,9 C 0,0 km/h (0 Bft) 97 %
20.08.2017 21:50 13,6 C 13,6 C 13,9 C 71 % 1023,3 hPa 0,0 l/m 0,0 km/h (0 Bft) N 0 0 min 0,000 mm 0 W/m 8,4 C 13,6 C 0,0 km/h (0 Bft) 98 %
20.08.2017 22:00 13,2 C 13,2 C 13,6 C 74 % 1023,4 hPa 0,0 l/m 0,0 km/h (0 Bft) N 0 0 min 0,025 mm 0 W/m 8,7 C 13,2 C 0,0 km/h (0 Bft) 97 %
20.08.2017 22:10 12,9 C 12,9 C 13,2 C 74 % 1023,5 hPa 0,0 l/m 0,0 km/h (0 Bft) N 0 0 min 0,000 mm 0 W/m 8,4 C 12,9 C 0,0 km/h (0 Bft) 97 %
20.08.2017 22:20 12,7 C 12,7 C 12,9 C 75 % 1023,7 hPa 0,0 l/m 0,0 km/h (0 Bft) N 0 0 min 0,000 mm 0 W/m 8,4 C 12,7 C 0,0 km/h (0 Bft) 98 %
20.08.2017 22:30 12,5 C 12,5 C 12,7 C 76 % 1023,6 hPa 0,0 l/m 0,0 km/h (0 Bft) N 0 0 min 0,000 mm 0 W/m 8,4 C 12,5 C 0,0 km/h (0 Bft) 97 %
20.08.2017 22:40 12,3 C 12,3 C 12,5 C 78 % 1023,7 hPa 0,0 l/m 0,0 km/h (0 Bft) N 0 0 min 0,000 mm 0 W/m 8,6 C 12,3 C 0,0 km/h (0 Bft) 98 %
20.08.2017 22:50 12,0 C 12,0 C 12,3 C 79 % 1023,6 hPa 0,0 l/m 0,0 km/h (0 Bft) N 0 0 min 0,000 mm 0 W/m 8,5 C 12,0 C 0,0 km/h (0 Bft) 97 %
20.08.2017 23:00 11,8 C 11,8 C 12,0 C 80 % 1023,7 hPa 0,0 l/m 0,0 km/h (0 Bft) N 0 0 min 0,025 mm 0 W/m 8,5 C 11,8 C 0,0 km/h (0 Bft) 98 %
20.08.2017 23:10 11,5 C 11,5 C 11,8 C 81 % 1023,6 hPa 0,0 l/m 0,0 km/h (0 Bft) N 0 0 min 0,000 mm 0 W/m 8,4 C 11,5 C 0,0 km/h (0 Bft) 88 %
20.08.2017 23:20 11,2 C 11,2 C 11,5 C 82 % 1023,7 hPa 0,0 l/m 0,0 km/h (0 Bft) N 0 0 min 0,000 mm 0 W/m 8,2 C 11,2 C 0,0 km/h (0 Bft) 98 %
20.08.2017 23:30 11,0 C 11,0 C 11,2 C 83 % 1023,6 hPa 0,0 l/m 0,0 km/h (0 Bft) N 0 0 min 0,000 mm 0 W/m 8,2 C 11,0 C 0,0 km/h (0 Bft) 97 %
20.08.2017 23:40 10,9 C 10,9 C 11,0 C 84 % 1023,7 hPa 0,0 l/m 0,0 km/h (0 Bft) N 0 0 min 0,000 mm 0 W/m 8,3 C 10,9 C 0,0 km/h (0 Bft) 98 %
20.08.2017 23:50 10,8 C 10,8 C 10,9 C 85 % 1023,6 hPa 0,0 l/m 0,0 km/h (0 Bft) W-NW 292 0 min 0,000 mm 0 W/m 8,4 C 10,8 C 1,6 km/h (1 Bft) 98 %
_ Min-Zeit 23:50 23:50 23:50 17:30 02:00 - 00:00 - - - - - 17:50 23:50 00:00 07:20
Minimum _ 10,8 C 10,8 C 10,9 C 47 % 1020,2 hPa - 0,0 km/h (0 Bft) - - - - - 8,0 C 10,8 C 0,0 km/h (0 Bft) 88 %
_ Max-Zeit 15:00 15:10 15:00 05:40 22:20 00:00 12:40 - - 12:40 13:00 14:00 09:40 14:50 13:40 12:50
Maximum _ 20,8 C 20,8 C 20,8 C 89 % 1023,7 hPa 0,0 l/m 15,1 km/h
W-SW (3 Bft)
- - 20 min 0,459 mm 935 W/m 12,9 C 19,9 C 33,8 km/h
N-NW (5 Bft)
100 %
Durchschnitt _ 15,8 C 15,7 C 15,9 C 71 % 1022,1 hPa #0,0 l/m 4,9 km/h (1 Bft) W-NW - #8:10 h #3,733 mm 373 W/m 10,2 C 15,1 C 11,8 km/h (2 Bft) 98 %
PRIVATE WETTERSTATION BILLIGHEIM-ALLFELD - www.neckar-odenwald-wetter.de - Holger Sonntag